Flat Rock, North Carolina
Current Conditions -  °F | °C
As of 4:54 AM on Saturday 25 Oct 2014 (Local Time) from KAVL Reporting Station
Clear Clear  
Wind Chill: 42°   Ceiling: Unl
Heat Index: 42°   Visibility: 10mi
Dew Point: 37°   Wind: 0mph
Humidity: 82%   Direction: NA
Pressure: 30.06"   Gusts: NA
Location:  35.27°N, 82.44°W
Report Text: KAVL 250854Z AUTO 00000KT 10SM CLR 06/03 A3006 RMK AO2 SLP170 T00560028 58004
Loading
Personal Weather Stations






























Interactive Weather Map
Tropical Storm Tracking
New forecast layout! Learn more

10-Day Weather Forecast

Advertisements
Track Severe Weather on mobile